createdAt,value
2019-03-03T00:02:40.301Z,87.04
2019-03-03T00:07:36.159Z,86.95
2019-03-03T00:12:32.548Z,87.01
2019-03-03T00:18:47.047Z,87.73
2019-03-03T00:45:22.804Z,87.52
2019-03-03T00:50:22.402Z,87.23
2019-03-03T00:55:28.394Z,87.91
2019-03-03T01:00:43.723Z,87.31
2019-03-03T01:05:49.135Z,87.74
2019-03-03T01:11:09.836Z,88.05
2019-03-03T01:16:18.967Z,88.38
2019-03-03T01:21:24.985Z,88.16
2019-03-03T01:26:22.678Z,87.68
2019-03-03T01:31:18.752Z,87.95
2019-03-03T01:36:14.642Z,88.28
2019-03-03T01:41:10.402Z,88.54
2019-03-03T01:46:06.270Z,89.21
2019-03-03T01:51:02.203Z,89.82
2019-03-03T01:55:58.107Z,89.27
2019-03-03T02:00:54.340Z,89.13
2019-03-03T02:05:50.227Z,89.25
2019-03-03T02:10:46.147Z,89.40
2019-03-03T02:15:42.252Z,89.73
2019-03-03T02:20:38.082Z,89.16
2019-03-03T02:25:34.104Z,90.06
2019-03-03T02:30:30.164Z,90.53
2019-03-03T02:35:26.202Z,90.28
2019-03-03T02:40:22.092Z,89.79
2019-03-03T02:45:19.799Z,91.01
2019-03-03T02:50:16.385Z,90.46
2019-03-03T02:55:16.313Z,89.68
2019-03-03T03:00:23.763Z,89.77
2019-03-03T03:05:31.931Z,89.66
2019-03-03T03:11:02.385Z,89.42
2019-03-03T03:16:20.029Z,90.68
2019-03-03T03:21:40.825Z,91.82
2019-03-03T03:26:55.531Z,92.17
2019-03-03T03:32:07.245Z,92.54
2019-03-03T03:37:17.418Z,92.28
2019-03-03T03:42:38.357Z,92.25
2019-03-03T03:47:43.832Z,92.40
2019-03-03T03:53:04.408Z,91.86
2019-03-03T03:58:10.893Z,91.61
2019-03-03T04:03:31.226Z,91.38
2019-03-03T04:08:48.964Z,90.35
2019-03-03T04:14:02.389Z,90.59
2019-03-03T04:19:19.678Z,90.61
2019-03-03T04:24:35.901Z,90.17
2019-03-03T04:29:42.129Z,90.30
2019-03-03T04:34:55.422Z,90.19
2019-03-03T04:40:17.563Z,91.22
2019-03-03T04:45:21.672Z,90.53
2019-03-03T04:50:41.980Z,90.08
2019-03-03T04:55:56.684Z,90.40
2019-03-03T05:01:10.040Z,89.74
2019-03-03T05:06:27.354Z,90.18
2019-03-03T05:12:55.734Z,88.67
2019-03-03T05:17:57.034Z,90.95
2019-03-03T05:22:52.918Z,92.11
2019-03-03T05:27:48.858Z,91.72
2019-03-03T05:32:44.645Z,91.04
2019-03-03T05:37:40.480Z,92.21
2019-03-03T05:42:36.229Z,92.82
2019-03-03T05:53:08.373Z,94.31
2019-03-03T05:58:04.340Z,94.25
2019-03-03T06:03:00.408Z,94.63
2019-03-03T06:07:56.225Z,94.38
2019-03-03T06:13:40.131Z,94.76
2019-03-03T06:18:42.565Z,95.27
2019-03-03T06:23:48.072Z,93.41
2019-03-03T06:28:43.945Z,92.80
2019-03-03T06:33:39.693Z,92.18
2019-03-03T06:38:35.510Z,90.78
2019-03-03T06:43:31.351Z,90.96
2019-03-03T06:48:27.134Z,89.89
2019-03-03T06:53:23.026Z,89.68
2019-03-03T06:58:19.157Z,89.91
2019-03-03T07:03:15.116Z,89.14
2019-03-03T07:08:10.976Z,89.25
2019-03-03T07:13:06.941Z,89.07
2019-03-03T07:18:02.833Z,89.04
2019-03-03T07:22:58.922Z,88.03
2019-03-03T07:27:54.738Z,87.28
2019-03-03T07:33:10.217Z,87.65
2019-03-03T07:38:06.066Z,87.00
2019-03-03T07:43:01.844Z,86.65
2019-03-03T07:47:57.813Z,87.74
2019-03-03T07:52:53.651Z,86.70
2019-03-03T07:57:51.820Z,85.36
2019-03-03T08:02:53.709Z,85.02
2019-03-03T08:07:51.134Z,82.06
2019-03-03T08:12:47.103Z,81.75
2019-03-03T08:17:43.028Z,79.39
2019-03-03T08:22:39.020Z,76.36
2019-03-03T08:27:35.095Z,76.49
2019-03-03T08:32:32.534Z,71.27
2019-03-03T08:37:28.578Z,72.04
2019-03-03T08:42:52.598Z,71.46
2019-03-03T08:47:58.233Z,73.18
2019-03-03T08:53:19.577Z,70.70
2019-03-03T08:58:26.494Z,70.46
2019-03-03T09:03:51.276Z,68.85
2019-03-03T09:09:10.606Z,67.94
2019-03-03T09:14:19.817Z,65.90
2019-03-03T09:19:26.052Z,67.22
2019-03-03T09:24:47.067Z,65.07
2019-03-03T09:30:01.634Z,65.12
2019-03-03T09:35:08.534Z,65.58
2019-03-03T09:40:22.464Z,62.67
2019-03-03T09:45:36.122Z,63.65
2019-03-03T09:50:57.009Z,65.31
2019-03-03T09:56:12.237Z,63.07
2019-03-03T10:01:36.155Z,61.66
2019-03-03T10:06:47.470Z,61.47
2019-03-03T10:11:57.986Z,62.99
2019-03-03T10:17:06.879Z,61.17
2019-03-03T10:22:39.667Z,62.98
2019-03-03T10:28:00.093Z,62.49
2019-03-03T10:33:18.412Z,62.77
2019-03-03T10:38:45.775Z,61.00
2019-03-03T10:43:48.483Z,59.70
2019-03-03T10:48:58.703Z,61.80
2019-03-03T10:54:19.652Z,60.68
2019-03-03T10:59:24.601Z,61.74
2019-03-03T11:04:42.404Z,63.76
2019-03-03T11:09:51.413Z,62.50
2019-03-03T11:15:18.692Z,62.42
2019-03-03T11:20:38.368Z,62.53
2019-03-03T11:26:05.566Z,61.40
2019-03-03T11:31:19.341Z,61.53
2019-03-03T11:36:40.632Z,60.76
2019-03-03T11:41:54.593Z,62.23
2019-03-03T11:47:09.451Z,59.07
2019-03-03T11:52:26.930Z,57.14
2019-03-03T11:57:46.137Z,61.67
2019-03-03T12:03:04.490Z,60.72
2019-03-03T12:08:24.519Z,60.22
2019-03-03T12:13:29.108Z,61.04
2019-03-03T12:18:35.983Z,60.53
2019-03-03T12:23:44.569Z,61.06
2019-03-03T12:29:11.727Z,59.61
2019-03-03T12:34:29.288Z,59.38
2019-03-03T12:39:32.319Z,59.68
2019-03-03T12:44:56.038Z,58.94
2019-03-03T12:50:09.339Z,57.59
2019-03-03T12:55:22.914Z,59.10
2019-03-03T13:00:35.021Z,58.30
2019-03-03T13:05:49.739Z,58.69
2019-03-03T13:10:54.731Z,56.11
2019-03-03T13:16:27.565Z,57.23
2019-03-03T13:21:39.555Z,54.74
2019-03-03T13:26:52.819Z,57.38
2019-03-03T13:32:16.411Z,54.83
2019-03-03T13:37:24.871Z,55.35
2019-03-03T13:42:39.091Z,56.36
2019-03-03T13:47:35.048Z,52.58
2019-03-03T13:52:30.865Z,54.54
2019-03-03T13:57:56.443Z,56.05
2019-03-03T14:02:52.524Z,55.27
2019-03-03T14:07:55.049Z,52.30
2019-03-03T14:12:50.909Z,54.13
2019-03-03T14:17:46.928Z,54.97
2019-03-03T14:22:42.741Z,52.57
2019-03-03T14:27:38.587Z,51.88
2019-03-03T14:32:34.383Z,52.01
2019-03-03T14:37:30.537Z,53.00
2019-03-03T14:42:26.403Z,52.46
2019-03-03T14:47:22.413Z,54.21
2019-03-03T14:52:18.281Z,55.67
2019-03-03T14:57:15.211Z,55.21
2019-03-03T15:02:11.131Z,54.38
2019-03-03T15:07:08.347Z,54.95
2019-03-03T15:12:06.764Z,54.32
2019-03-03T15:17:07.306Z,55.91
2019-03-03T15:22:17.615Z,52.23
2019-03-03T15:27:14.760Z,54.29
2019-03-03T15:32:10.546Z,53.58
2019-03-03T15:37:08.103Z,52.98
2019-03-03T15:42:05.800Z,50.55
2019-03-03T15:47:01.792Z,52.30
2019-03-03T15:51:57.661Z,52.83
2019-03-03T15:56:53.561Z,54.31
2019-03-03T16:01:49.342Z,52.92
2019-03-03T16:06:45.112Z,52.81
2019-03-03T16:11:40.893Z,53.69
2019-03-03T16:16:37.433Z,51.66
2019-03-03T16:21:33.265Z,52.18
2019-03-03T16:26:29.121Z,53.25
2019-03-03T16:31:26.882Z,53.42
2019-03-03T16:36:23.010Z,54.50
2019-03-03T16:41:18.967Z,55.16
2019-03-03T16:46:15.805Z,55.53
2019-03-03T16:51:11.736Z,55.64
2019-03-03T16:56:07.699Z,56.09
2019-03-03T17:01:03.548Z,54.17
2019-03-03T17:05:59.406Z,55.95
2019-03-03T17:10:55.292Z,57.02
2019-03-03T17:15:51.377Z,57.69
2019-03-03T17:20:47.288Z,59.13
2019-03-03T17:25:43.346Z,59.27
2019-03-03T17:30:39.290Z,61.65
2019-03-03T17:35:35.222Z,61.63
2019-03-03T17:40:30.978Z,63.82
2019-03-03T17:45:27.365Z,61.83
2019-03-03T17:50:23.670Z,64.12
2019-03-03T17:55:21.471Z,65.20
2019-03-03T18:00:21.276Z,65.34
2019-03-03T18:05:20.031Z,65.83
2019-03-03T18:10:16.093Z,65.03
2019-03-03T18:15:12.474Z,63.88
2019-03-03T18:20:10.766Z,65.35
2019-03-03T18:25:07.042Z,66.41
2019-03-03T18:30:02.938Z,67.09
2019-03-03T18:34:58.736Z,68.35
2019-03-03T18:39:54.686Z,67.37
2019-03-03T18:44:50.607Z,68.39
2019-03-03T18:49:46.526Z,68.77
2019-03-03T18:54:42.471Z,68.05
2019-03-03T18:59:38.505Z,70.09
2019-03-03T19:04:34.270Z,70.65
2019-03-03T19:09:30.196Z,69.91
2019-03-03T19:14:28.492Z,70.55
2019-03-03T19:19:23.692Z,72.18
2019-03-03T19:24:19.463Z,71.89
2019-03-03T19:29:15.230Z,70.59
2019-03-03T19:34:11.084Z,71.89
2019-03-03T19:39:07.791Z,71.38
2019-03-03T19:44:03.672Z,70.89
2019-03-03T19:48:59.487Z,72.27
2019-03-03T19:53:55.409Z,73.37
2019-03-03T19:58:51.406Z,73.32
2019-03-03T20:03:48.251Z,73.78
2019-03-03T20:08:44.144Z,73.79
2019-03-03T20:13:40.054Z,72.23
2019-03-03T20:18:35.953Z,71.46
2019-03-03T20:23:31.947Z,73.14
2019-03-03T20:28:29.204Z,73.29
2019-03-03T20:33:25.105Z,73.22
2019-03-03T20:38:20.925Z,74.74
2019-03-03T20:43:16.728Z,73.42
2019-03-03T20:48:13.207Z,74.95
2019-03-03T20:53:09.204Z,76.36
2019-03-03T20:58:05.055Z,75.20
2019-03-03T21:03:01.184Z,74.00
2019-03-03T21:07:57.081Z,76.10
2019-03-03T21:12:53.105Z,75.81
2019-03-03T21:17:49.076Z,74.67
2019-03-03T21:22:45.018Z,74.93
2019-03-03T21:27:42.003Z,72.46
2019-03-03T21:32:47.213Z,73.47
2019-03-03T21:37:43.028Z,73.33
2019-03-03T21:42:38.912Z,74.13
2019-03-03T21:47:34.800Z,74.06
2019-03-03T21:52:30.623Z,74.82
2019-03-03T21:57:26.620Z,73.91
2019-03-03T22:02:22.374Z,74.13
2019-03-03T22:07:18.146Z,73.44
2019-03-03T22:12:13.944Z,74.87
2019-03-03T22:17:09.755Z,73.29
2019-03-03T22:22:05.897Z,75.97
2019-03-03T22:27:01.713Z,74.67
2019-03-03T22:31:57.471Z,74.06
2019-03-03T22:36:53.213Z,71.51
2019-03-03T22:41:49.356Z,70.91
2019-03-03T22:46:45.134Z,70.44
2019-03-03T22:51:40.937Z,71.73
2019-03-03T22:56:36.672Z,72.41
2019-03-03T23:01:42.960Z,72.70
2019-03-03T23:06:48.766Z,71.62
2019-03-03T23:12:59.340Z,72.73
2019-03-03T23:18:58.516Z,71.40
2019-03-03T23:25:02.410Z,72.01
2019-03-03T23:29:58.152Z,70.32
2019-03-03T23:34:54.683Z,71.06
2019-03-03T23:39:50.504Z,72.81
2019-03-03T23:44:46.279Z,71.57
2019-03-03T23:49:42.076Z,72.64
2019-03-03T23:54:37.857Z,75.49
2019-03-03T23:59:33.790Z,76.27
